createdAt,value
2023-01-17T00:02:14.515Z,27.27
2023-01-17T00:05:01.018Z,30.43
2023-01-17T00:07:49.365Z,24.97
2023-01-17T00:10:21.062Z,26.63
2023-01-17T00:12:55.772Z,27.27
2023-01-17T00:15:25.328Z,27.57
2023-01-17T00:17:54.541Z,23.27
2023-01-17T00:20:43.498Z,23.40
2023-01-17T00:23:41.627Z,24.63
2023-01-17T00:26:16.843Z,21.70
2023-01-17T00:28:45.647Z,23.60
2023-01-17T00:31:15.658Z,27.17
2023-01-17T00:33:43.938Z,20.63
2023-01-17T00:36:12.749Z,19.40
2023-01-17T00:38:43.922Z,22.93
2023-01-17T00:41:15.018Z,19.67
2023-01-17T00:44:04.638Z,20.47
2023-01-17T00:46:51.293Z,21.03
2023-01-17T00:49:37.899Z,21.33
2023-01-17T00:52:26.785Z,25.47
2023-01-17T00:55:13.342Z,26.23
2023-01-17T00:57:59.715Z,25.37
2023-01-17T01:00:46.280Z,25.40
2023-01-17T01:03:33.300Z,24.70
2023-01-17T01:06:24.584Z,27.53
2023-01-17T01:09:11.308Z,23.93
2023-01-17T01:12:00.671Z,24.23
2023-01-17T01:14:51.984Z,23.63
2023-01-17T01:17:38.822Z,27.23
2023-01-17T01:20:26.931Z,26.30
2023-01-17T01:23:24.505Z,25.77
2023-01-17T01:26:15.955Z,24.97
2023-01-17T01:29:02.893Z,25.20
2023-01-17T01:31:49.246Z,23.00
2023-01-17T01:34:18.134Z,24.00
2023-01-17T01:36:47.244Z,30.50
2023-01-17T01:39:22.879Z,25.30
2023-01-17T01:41:54.756Z,22.30
2023-01-17T01:45:13.025Z,25.30
2023-01-17T01:47:42.415Z,24.37
2023-01-17T01:50:19.579Z,23.83
2023-01-17T01:52:54.741Z,25.80
2023-01-17T01:55:32.682Z,26.87
2023-01-17T01:58:04.675Z,24.73
2023-01-17T02:00:36.752Z,25.50
2023-01-17T02:03:08.549Z,24.97
2023-01-17T02:05:39.147Z,25.53
2023-01-17T02:08:12.677Z,23.67
2023-01-17T02:11:02.456Z,24.13
2023-01-17T02:13:43.796Z,26.30
2023-01-17T02:16:30.874Z,26.87
2023-01-17T02:19:20.115Z,25.87
2023-01-17T02:22:08.414Z,23.93
2023-01-17T02:24:49.092Z,29.50
2023-01-17T02:27:43.404Z,24.30
2023-01-17T02:30:27.083Z,25.37
2023-01-17T02:33:18.673Z,22.47
2023-01-17T02:36:08.136Z,26.33
2023-01-17T02:38:41.370Z,26.10
2023-01-17T02:41:18.805Z,25.57
2023-01-17T02:43:53.618Z,27.50
2023-01-17T02:46:26.126Z,25.03
2023-01-17T02:48:59.760Z,20.10
2023-01-17T02:52:03.405Z,22.50
2023-01-17T02:55:11.024Z,24.70
2023-01-17T02:58:02.048Z,21.43
2023-01-17T03:00:54.838Z,23.13
2023-01-17T03:03:43.869Z,20.97
2023-01-17T03:06:24.132Z,21.50
2023-01-17T03:08:54.501Z,23.87
2023-01-17T03:11:26.587Z,21.03
2023-01-17T03:13:59.810Z,21.00
2023-01-17T03:16:31.488Z,22.50
2023-01-17T03:19:01.890Z,23.37
2023-01-17T03:21:30.916Z,23.03
2023-01-17T03:24:01.177Z,22.07
2023-01-17T03:26:30.282Z,24.67
2023-01-17T03:28:58.966Z,23.33
2023-01-17T03:31:27.705Z,21.73
2023-01-17T03:33:56.474Z,21.97
2023-01-17T03:36:25.081Z,23.57
2023-01-17T03:38:53.774Z,22.33
2023-01-17T03:41:55.000Z,21.20
2023-01-17T03:44:24.276Z,22.00
2023-01-17T03:46:53.145Z,24.70
2023-01-17T03:49:21.817Z,22.37
2023-01-17T03:51:50.406Z,20.33
2023-01-17T03:54:20.501Z,23.67
2023-01-17T03:56:49.143Z,22.87
2023-01-17T03:59:19.294Z,20.50
2023-01-17T04:01:48.168Z,21.97
2023-01-17T04:04:17.142Z,20.77
2023-01-17T04:06:47.666Z,22.93
2023-01-17T04:09:16.342Z,21.10
2023-01-17T04:11:44.935Z,22.07
2023-01-17T04:14:13.600Z,22.70
2023-01-17T04:16:42.355Z,20.93
2023-01-17T04:19:14.215Z,20.27
2023-01-17T04:21:45.846Z,20.83
2023-01-17T04:24:31.411Z,19.03
2023-01-17T04:26:54.468Z,23.43
2023-01-17T04:29:36.263Z,21.43
2023-01-17T04:35:04.888Z,20.03
2023-01-17T04:37:39.390Z,22.33
2023-01-17T04:40:12.957Z,19.87
2023-01-17T04:43:00.192Z,18.77
2023-01-17T04:45:32.413Z,20.60
2023-01-17T04:48:26.264Z,21.57
2023-01-17T04:51:13.506Z,21.10
2023-01-17T04:53:46.383Z,20.27
2023-01-17T04:56:22.814Z,25.60
2023-01-17T04:58:53.503Z,21.73
2023-01-17T05:01:25.458Z,19.73
2023-01-17T05:04:08.062Z,20.13
2023-01-17T05:06:40.708Z,18.70
2023-01-17T05:09:09.603Z,20.77
2023-01-17T05:11:42.195Z,22.77
2023-01-17T05:14:14.763Z,22.00
2023-01-17T05:16:46.005Z,22.13
2023-01-17T05:19:16.174Z,18.67
2023-01-17T05:21:49.487Z,17.50
2023-01-17T05:24:19.032Z,20.97
2023-01-17T05:26:50.354Z,19.40
2023-01-17T05:29:22.267Z,19.43
2023-01-17T05:31:51.965Z,17.93
2023-01-17T05:34:23.828Z,19.73
2023-01-17T05:37:05.103Z,20.40
2023-01-17T05:39:36.690Z,19.83
2023-01-17T05:42:05.753Z,21.77
2023-01-17T05:44:38.852Z,22.10
2023-01-17T05:47:07.467Z,20.80
2023-01-17T05:49:36.225Z,19.70
2023-01-17T05:52:05.036Z,19.00
2023-01-17T05:54:33.664Z,26.23
2023-01-17T05:57:02.463Z,25.27
2023-01-17T05:59:37.309Z,21.30
2023-01-17T06:02:07.310Z,20.90
2023-01-17T06:04:36.212Z,20.83
2023-01-17T06:07:04.914Z,21.90
2023-01-17T06:09:33.516Z,24.60
2023-01-17T06:12:02.181Z,24.63
2023-01-17T06:14:30.987Z,21.37
2023-01-17T06:16:59.824Z,22.60
2023-01-17T06:19:28.722Z,21.57
2023-01-17T06:21:57.437Z,25.60
2023-01-17T06:24:26.188Z,26.73
2023-01-17T06:27:00.732Z,22.43
2023-01-17T06:29:29.441Z,28.03
2023-01-17T06:32:00.280Z,22.10
2023-01-17T06:34:30.313Z,21.27
2023-01-17T06:36:59.260Z,27.20
2023-01-17T06:39:27.847Z,22.20
2023-01-17T06:41:56.594Z,20.97
2023-01-17T06:44:26.300Z,20.47
2023-01-17T06:46:55.417Z,21.10
2023-01-17T06:49:29.872Z,25.30
2023-01-17T06:52:12.633Z,22.03
2023-01-17T06:55:04.887Z,26.17
2023-01-17T06:58:09.656Z,25.57
2023-01-17T07:09:54.238Z,23.13
2023-01-17T07:12:25.997Z,29.10
2023-01-17T07:15:00.564Z,28.83
2023-01-17T07:17:34.033Z,28.20
2023-01-17T07:20:07.904Z,25.27
2023-01-17T07:22:38.484Z,23.03
2023-01-17T07:25:19.560Z,23.90
2023-01-17T07:27:46.189Z,22.57
2023-01-17T07:30:17.531Z,22.43
2023-01-17T07:32:56.928Z,24.60
2023-01-17T07:35:27.387Z,25.53
2023-01-17T07:38:16.829Z,21.30
2023-01-17T07:40:52.679Z,19.63
2023-01-17T07:43:33.177Z,25.93
2023-01-17T07:46:05.829Z,19.03
2023-01-17T07:48:45.257Z,21.77
2023-01-17T07:51:22.836Z,23.00
2023-01-17T07:53:57.560Z,18.03
2023-01-17T07:56:35.658Z,22.07
2023-01-17T07:59:05.152Z,20.13
2023-01-17T08:01:41.553Z,19.97
2023-01-17T08:04:15.052Z,22.87
2023-01-17T08:07:04.270Z,21.93
2023-01-17T08:09:36.259Z,18.93
2023-01-17T08:12:12.120Z,19.47
2023-01-17T08:15:12.312Z,23.07
2023-01-17T08:17:53.742Z,20.90
2023-01-17T08:20:28.133Z,16.50
2023-01-17T08:26:18.069Z,17.33
2023-01-17T08:28:47.105Z,17.33
2023-01-17T08:31:21.449Z,21.97
2023-01-17T08:33:56.901Z,17.93
2023-01-17T08:36:31.412Z,11.97
2023-01-17T08:39:18.378Z,27.57
2023-01-17T08:41:51.184Z,5.43
2023-01-17T08:44:23.341Z,6.17
2023-01-17T08:46:58.509Z,11.73
2023-01-17T08:49:32.928Z,15.70
2023-01-17T08:52:05.322Z,6.00
2023-01-17T08:54:49.566Z,2.37
2023-01-17T08:57:20.670Z,6.00
2023-01-17T08:59:52.153Z,5.50
2023-01-17T09:02:23.666Z,2.20
2023-01-17T09:04:55.561Z,4.13
2023-01-17T09:07:28.738Z,4.40
2023-01-17T09:10:02.990Z,9.93
2023-01-17T09:12:36.363Z,2.98
2023-01-17T09:15:05.780Z,2.83
2023-01-17T09:17:34.588Z,6.35
2023-01-17T09:20:07.866Z,6.90
2023-01-17T09:22:50.653Z,3.70
2023-01-17T09:25:23.489Z,7.83
2023-01-17T09:28:12.415Z,14.70
2023-01-17T09:30:42.999Z,10.40
2023-01-17T09:33:11.808Z,4.77
2023-01-17T09:35:43.580Z,4.28
2023-01-17T09:38:12.747Z,12.50
2023-01-17T09:40:47.508Z,6.25
2023-01-17T09:43:23.424Z,8.08
2023-01-17T09:45:57.756Z,7.67
2023-01-17T09:48:34.990Z,8.03
2023-01-17T09:51:30.511Z,11.95
2023-01-17T10:00:03.457Z,8.60
2023-01-17T10:00:38.008Z,11.90
2023-01-17T10:03:47.321Z,15.95
2023-01-17T10:06:34.070Z,11.80
2023-01-17T10:09:27.745Z,10.30
2023-01-17T10:12:10.760Z,9.08
2023-01-17T10:14:54.618Z,6.58
2023-01-17T10:17:48.892Z,6.47
2023-01-17T10:21:06.972Z,9.73
2023-01-17T10:23:49.163Z,8.10
2023-01-17T10:30:37.333Z,9.18
2023-01-17T10:33:15.072Z,10.15
2023-01-17T10:35:58.836Z,12.45
2023-01-17T10:38:40.881Z,8.93
2023-01-17T10:41:18.521Z,9.53
2023-01-17T10:43:55.955Z,12.70
2023-01-17T10:46:28.692Z,8.25
2023-01-17T10:48:58.375Z,4.28
2023-01-17T10:51:51.588Z,8.38
2023-01-17T10:54:25.841Z,1.47
2023-01-17T10:56:54.795Z,4.03
2023-01-17T10:59:39.807Z,3.77
2023-01-17T11:02:11.914Z,4.90
2023-01-17T11:04:43.353Z,3.27
2023-01-17T11:07:21.228Z,2.95
2023-01-17T11:09:55.309Z,3.72
2023-01-17T11:12:32.845Z,4.33
2023-01-17T11:15:13.461Z,2.80
2023-01-17T11:17:52.705Z,1.95
2023-01-17T11:20:24.499Z,7.78
2023-01-17T11:23:14.037Z,7.70
2023-01-17T11:25:53.086Z,3.83
2023-01-17T11:38:10.470Z,1.90
2023-01-17T12:04:21.831Z,1.55
2023-01-17T12:47:48.146Z,2.95
2023-01-17T12:50:44.041Z,2.77
2023-01-17T12:53:23.934Z,2.83
2023-01-17T12:55:55.628Z,1.87
2023-01-17T12:58:30.182Z,3.42
2023-01-17T13:01:15.785Z,2.95
2023-01-17T13:35:10.629Z,7.53
2023-01-17T13:35:12.512Z,4.33
2023-01-17T13:38:03.215Z,12.18
2023-01-17T13:41:06.548Z,2.08
2023-01-17T13:43:41.314Z,7.55
2023-01-17T13:46:22.551Z,3.40
2023-01-17T13:52:41.167Z,6.00
2023-01-17T13:55:22.807Z,9.58
2023-01-17T13:57:55.988Z,8.85
2023-01-17T14:00:32.009Z,6.80
2023-01-17T14:03:03.214Z,7.20
2023-01-17T14:09:02.086Z,5.62
2023-01-17T14:11:44.041Z,4.17
2023-01-17T14:14:50.565Z,7.60
2023-01-17T14:17:28.622Z,20.70
2023-01-17T14:20:08.331Z,7.17
2023-01-17T14:22:58.537Z,2.98
2023-01-17T14:25:32.618Z,5.55
2023-01-17T14:28:07.336Z,5.17
2023-01-17T14:30:39.291Z,2.50
2023-01-17T14:33:21.295Z,4.60
2023-01-17T14:35:52.972Z,4.90
2023-01-17T14:38:30.129Z,2.90
2023-01-17T14:41:22.680Z,3.62
2023-01-17T14:43:52.327Z,1.87
2023-01-17T14:46:29.662Z,3.45
2023-01-17T14:49:03.969Z,5.12
2023-01-17T14:51:38.136Z,2.37
2023-01-17T14:54:24.178Z,4.05
2023-01-17T14:56:53.534Z,3.02
2023-01-17T14:59:30.041Z,8.05
2023-01-17T15:02:08.973Z,2.77
2023-01-17T15:04:40.689Z,5.20
2023-01-17T15:07:12.321Z,3.50
2023-01-17T15:09:44.913Z,4.85
2023-01-17T15:12:14.951Z,2.98
2023-01-17T15:14:48.089Z,4.05
2023-01-17T15:17:24.310Z,2.17
2023-01-17T15:20:06.280Z,2.77
2023-01-17T15:22:56.795Z,2.33
2023-01-17T15:25:22.425Z,2.25
2023-01-17T15:27:57.201Z,3.25
2023-01-17T15:30:23.617Z,15.63
2023-01-17T15:32:58.767Z,3.95
2023-01-17T15:35:28.899Z,3.27
2023-01-17T15:38:05.280Z,4.33
2023-01-17T15:40:35.751Z,3.08
2023-01-17T15:43:09.144Z,5.87
2023-01-17T15:45:38.053Z,2.90
2023-01-17T15:48:30.399Z,7.25
2023-01-17T15:54:24.741Z,4.65
2023-01-17T15:57:11.239Z,6.72
2023-01-17T16:00:13.820Z,6.28
2023-01-17T16:03:01.378Z,3.22
2023-01-17T16:05:33.331Z,6.42
2023-01-17T16:08:07.916Z,4.55
2023-01-17T16:11:16.340Z,7.10
2023-01-17T19:00:27.858Z,34.70
2023-01-17T19:02:58.681Z,36.70
2023-01-17T19:05:27.459Z,37.07
2023-01-17T19:07:56.660Z,36.73
2023-01-17T19:10:25.973Z,30.20
2023-01-17T19:25:48.381Z,35.93
2023-01-17T19:28:17.370Z,45.93
2023-01-17T19:30:46.562Z,32.47
2023-01-17T19:33:17.792Z,29.37
2023-01-17T19:35:52.907Z,35.27
2023-01-17T19:38:21.731Z,25.37
2023-01-17T19:40:54.828Z,22.50
2023-01-17T19:43:24.771Z,24.63
2023-01-17T19:46:45.349Z,28.45
2023-01-17T19:49:15.740Z,18.37
2023-01-17T19:52:03.994Z,20.60
2023-01-17T19:54:42.738Z,19.50
2023-01-17T20:03:04.489Z,18.23
2023-01-17T20:05:37.680Z,17.92
2023-01-17T20:08:09.269Z,9.40
2023-01-17T20:10:38.068Z,17.23
2023-01-17T20:13:06.877Z,9.93
2023-01-17T20:15:39.223Z,11.03
2023-01-17T20:18:12.730Z,18.45
2023-01-17T20:20:56.212Z,12.78
2023-01-17T20:23:15.536Z,12.65
2023-01-17T20:26:07.983Z,7.47
2023-01-17T20:34:55.146Z,5.17
2023-01-17T20:37:25.972Z,9.53
2023-01-17T20:39:59.380Z,8.58
2023-01-17T20:42:40.068Z,11.03
2023-01-17T20:45:24.121Z,8.78
2023-01-17T20:47:53.263Z,9.88
2023-01-17T20:50:29.057Z,13.58
2023-01-17T20:53:00.070Z,12.10
2023-01-17T20:56:14.974Z,10.75
2023-01-17T20:58:25.987Z,6.42
2023-01-17T21:00:56.812Z,9.08
2023-01-17T21:06:18.614Z,7.30
2023-01-17T21:08:48.992Z,7.92
2023-01-17T21:11:20.765Z,8.93
2023-01-17T21:13:50.022Z,4.37
2023-01-17T21:16:35.627Z,7.47
2023-01-17T21:19:13.615Z,4.17
2023-01-17T21:21:42.415Z,3.72
2023-01-17T21:24:12.898Z,5.42
2023-01-17T21:26:47.665Z,12.65
2023-01-17T21:29:16.393Z,4.90
2023-01-17T21:31:49.995Z,8.33
2023-01-17T21:34:35.058Z,6.85
2023-01-17T21:40:19.214Z,2.55
2023-01-17T21:42:48.369Z,4.90
2023-01-17T21:48:19.555Z,6.87
2023-01-17T21:48:54.014Z,5.12
2023-01-17T21:54:09.714Z,2.10
2023-01-17T21:56:56.115Z,3.77
2023-01-17T21:59:24.838Z,5.70
2023-01-17T22:01:53.435Z,4.95
2023-01-17T22:04:24.008Z,3.90
2023-01-17T22:06:56.061Z,2.87
2023-01-17T22:09:27.414Z,15.00
2023-01-17T22:11:56.097Z,6.00
2023-01-17T22:14:33.529Z,4.55
2023-01-17T22:17:09.455Z,2.05
2023-01-17T22:19:46.470Z,4.95
2023-01-17T22:22:20.552Z,3.90
2023-01-17T22:25:13.250Z,2.65
2023-01-17T22:31:44.163Z,1.47
2023-01-17T22:34:25.133Z,3.42
2023-01-17T22:40:20.339Z,3.33
2023-01-17T22:42:58.118Z,5.75
2023-01-17T22:45:36.900Z,6.83
2023-01-17T22:48:29.106Z,4.25
2023-01-17T22:51:15.971Z,8.18
2023-01-17T22:54:32.898Z,2.10
2023-01-17T22:59:45.348Z,3.00
2023-01-17T23:02:31.396Z,3.47
2023-01-17T23:08:02.200Z,7.35
2023-01-17T23:10:47.216Z,3.40
2023-01-17T23:13:15.998Z,3.87
2023-01-17T23:16:03.918Z,1.67
2023-01-17T23:18:50.104Z,3.30
2023-01-17T23:21:24.773Z,3.30
2023-01-17T23:23:53.517Z,4.55
2023-01-17T23:26:25.566Z,2.02
2023-01-17T23:28:57.776Z,1.98
2023-01-17T23:31:49.493Z,2.77
2023-01-17T23:34:23.337Z,1.55
2023-01-17T23:36:52.271Z,1.80
2023-01-17T23:39:21.465Z,1.57
2023-01-17T23:42:08.214Z,1.67
2023-01-17T23:44:36.746Z,3.08
2023-01-17T23:47:17.057Z,5.00
2023-01-17T23:49:47.339Z,3.00
2023-01-17T23:52:16.737Z,2.10
2023-01-17T23:54:45.671Z,4.40
2023-01-17T23:57:14.300Z,8.23
2023-01-17T23:59:43.068Z,2.70
